Time;durP1;ratioP1;P1;durP2;ratioP2;P2;SDS_P1;SDS_P2;PMS_P1;PMS_P2;Temp;Humidity;BMP_temperature;BMP_pressure;BME280_temperature;BME280_humidity;BME280_pressure;Samples;Min_cycle;Max_cycle;Signal;HPM_P1;HPM_P2
2022/01/09 00:01:26;;;;;;;12.75;8.80;;;4.30;99.90;;;;;;4998349;28;20040;-75
2022/01/09 00:03:51;;;;;;;13.85;9.80;;;4.30;99.90;;;;;;4993073;28;20045;-76
2022/01/09 00:06:17;;;;;;;13.48;9.95;;;4.30;99.90;;;;;;4996785;28;20057;-76
2022/01/09 00:08:44;;;;;;;14.55;9.82;;;4.30;99.90;;;;;;4997734;28;20047;-75
2022/01/09 00:11:11;;;;;;;13.32;9.68;;;4.30;99.90;;;;;;4989477;28;20052;-76
2022/01/09 00:13:36;;;;;;;14.18;9.48;;;4.30;99.90;;;;;;4993648;28;20185;-76
2022/01/09 00:16:02;;;;;;;15.18;10.60;;;4.30;99.90;;;;;;4999202;28;20047;-76
2022/01/09 00:18:28;;;;;;;13.30;9.93;;;4.30;99.90;;;;;;4996956;28;20046;-76
2022/01/09 00:20:54;;;;;;;14.25;9.95;;;4.30;99.90;;;;;;4999709;28;20100;-76
2022/01/09 00:23:20;;;;;;;13.77;9.98;;;4.30;99.90;;;;;;4993279;28;20030;-75
2022/01/09 00:25:46;;;;;;;14.73;10.75;;;4.30;99.90;;;;;;4997196;28;20397;-75
2022/01/09 00:28:11;;;;;;;14.80;9.40;;;4.30;99.90;;;;;;5005334;28;20087;-76
2022/01/09 00:30:37;;;;;;;13.63;10.15;;;4.30;99.90;;;;;;4998444;28;20365;-76
2022/01/09 00:33:06;;;;;;;13.90;9.60;;;4.30;99.90;;;;;;4995909;28;20050;-77
2022/01/09 00:35:32;;;;;;;13.10;9.75;;;4.30;99.90;;;;;;4996355;28;20103;-76
2022/01/09 00:37:58;;;;;;;14.68;10.05;;;4.30;99.90;;;;;;4992349;28;20161;-76
2022/01/09 00:40:24;;;;;;;18.05;10.55;;;4.30;99.90;;;;;;4996374;28;20145;-76
2022/01/09 00:42:50;;;;;;;13.88;10.45;;;4.30;99.90;;;;;;5014270;28;20036;-76
2022/01/09 00:45:16;;;;;;;14.00;10.85;;;4.30;99.90;;;;;;4996608;28;20042;-76
2022/01/09 00:47:42;;;;;;;15.05;10.73;;;4.30;99.90;;;;;;4998420;28;20038;-76
2022/01/09 00:50:10;;;;;;;15.35;10.27;;;4.30;99.90;;;;;;4998914;28;20087;-76
2022/01/09 00:52:35;;;;;;;15.88;10.75;;;4.30;99.90;;;;;;4998392;28;20046;-76
2022/01/09 00:55:02;;;;;;;14.70;10.27;;;4.30;99.90;;;;;;5000927;28;20103;-76
2022/01/09 00:57:28;;;;;;;16.45;11.23;;;4.30;99.90;;;;;;5029288;27;20396;-76
2022/01/09 00:59:53;;;;;;;16.70;10.98;;;4.30;99.90;;;;;;4994635;28;20054;-76
2022/01/09 01:02:19;;;;;;;16.35;11.13;;;4.30;99.90;;;;;;5001425;28;20074;-77
2022/01/09 01:04:47;;;;;;;15.20;10.02;;;4.30;99.90;;;;;;4995992;28;20470;-76
2022/01/09 01:07:12;;;;;;;16.13;11.43;;;4.30;99.90;;;;;;4995421;28;20046;-76
2022/01/09 01:09:38;;;;;;;15.70;10.68;;;4.30;99.90;;;;;;4993571;28;20124;-77
2022/01/09 01:12:04;;;;;;;15.18;10.80;;;4.30;99.90;;;;;;5020621;28;20050;-77
2022/01/09 01:14:31;;;;;;;16.83;12.00;;;4.30;99.90;;;;;;4997445;28;20102;-76
2022/01/09 01:16:57;;;;;;;16.77;11.98;;;4.30;99.90;;;;;;4994037;28;20047;-76
2022/01/09 01:19:23;;;;;;;16.08;11.18;;;4.30;99.90;;;;;;4999980;28;20399;-76
2022/01/09 01:21:49;;;;;;;18.10;12.70;;;4.30;99.90;;;;;;4999620;28;20041;-77
2022/01/09 01:24:17;;;;;;;16.13;11.70;;;4.30;99.90;;;;;;4994976;28;20049;-76
2022/01/09 01:26:43;;;;;;;17.67;12.95;;;4.30;99.90;;;;;;4995645;28;20042;-76
2022/01/09 01:29:10;;;;;;;18.42;13.68;;;4.30;99.90;;;;;;4995906;28;20046;-76
2022/01/09 01:31:36;;;;;;;18.40;12.68;;;4.30;99.90;;;;;;4998183;28;20173;-76
2022/01/09 01:34:01;;;;;;;23.15;14.55;;;4.30;99.90;;;;;;5018563;28;20066;-76
2022/01/09 01:36:27;;;;;;;19.75;14.30;;;4.30;99.90;;;;;;4998948;28;20047;-76
2022/01/09 01:38:53;;;;;;;21.80;15.45;;;4.30;99.90;;;;;;5003531;28;20102;-76
2022/01/09 01:41:19;;;;;;;20.17;14.10;;;4.30;99.90;;;;;;4999401;28;20082;-76
2022/01/09 01:43:44;;;;;;;20.83;13.88;;;4.30;99.90;;;;;;5011989;28;20480;-77
2022/01/09 01:46:10;;;;;;;19.48;13.95;;;4.30;99.90;;;;;;5033736;28;20053;-76
2022/01/09 01:48:35;;;;;;;20.92;14.68;;;4.30;99.90;;;;;;5003238;28;20042;-77
2022/01/09 01:51:01;;;;;;;19.73;14.07;;;4.30;99.90;;;;;;4992727;28;20456;-76
2022/01/09 01:53:27;;;;;;;23.10;14.77;;;4.30;99.90;;;;;;4997486;28;20038;-76
2022/01/09 01:55:55;;;;;;;22.25;15.48;;;4.30;99.90;;;;;;5019747;28;20141;-76
2022/01/09 01:58:23;;;;;;;21.40;14.65;;;4.30;99.90;;;;;;5006748;28;20155;-76
2022/01/09 02:00:48;;;;;;;21.00;14.43;;;4.30;99.90;;;;;;4994372;28;20083;-76
2022/01/09 02:03:14;;;;;;;23.05;15.85;;;4.30;99.90;;;;;;4991446;28;20073;-76
2022/01/09 02:05:42;;;;;;;19.88;14.10;;;4.30;99.90;;;;;;4999391;28;20058;-75
2022/01/09 02:08:08;;;;;;;23.00;15.30;;;4.30;99.90;;;;;;4996790;28;20049;-76
2022/01/09 02:10:34;;;;;;;23.60;17.13;;;4.30;99.90;;;;;;4994293;28;20058;-76
2022/01/09 02:12:59;;;;;;;24.20;17.08;;;4.30;99.90;;;;;;4990564;28;20053;-75
2022/01/09 02:15:31;;;;;;;22.63;15.70;;;4.30;99.90;;;;;;5001188;28;20073;-76
2022/01/09 02:17:57;;;;;;;24.05;16.95;;;4.30;99.90;;;;;;4996162;28;20521;-75
2022/01/09 02:20:23;;;;;;;22.60;16.10;;;4.30;99.90;;;;;;4992582;28;20066;-75
2022/01/09 02:22:48;;;;;;;24.30;17.60;;;4.30;99.90;;;;;;4998996;28;20050;-75
2022/01/09 02:25:15;;;;;;;26.67;17.02;;;4.30;99.90;;;;;;4997786;28;20130;-75
2022/01/09 02:27:41;;;;;;;23.90;17.33;;;4.30;99.90;;;;;;4998922;28;20171;-75
2022/01/09 02:30:08;;;;;;;26.23;16.90;;;4.30;99.90;;;;;;4995252;28;20556;-75
2022/01/09 02:32:34;;;;;;;26.85;17.02;;;4.40;99.90;;;;;;4994698;28;20091;-75
2022/01/09 02:35:00;;;;;;;26.35;17.98;;;4.40;99.90;;;;;;4995518;28;20417;-75
2022/01/09 02:37:26;;;;;;;28.00;18.77;;;4.40;99.90;;;;;;5004707;28;20038;-75
2022/01/09 02:39:53;;;;;;;26.25;16.52;;;4.40;99.90;;;;;;4995618;28;20046;-75
2022/01/09 02:42:26;;;;;;;31.38;19.80;;;4.40;99.90;;;;;;4996307;28;20102;-76
2022/01/09 02:44:52;;;;;;;30.88;18.55;;;4.40;99.90;;;;;;5001741;28;20050;-76
2022/01/09 02:47:19;;;;;;;30.10;18.50;;;4.40;99.90;;;;;;4995029;28;20054;-76
2022/01/09 02:49:49;;;;;;;28.15;16.38;;;4.40;99.90;;;;;;4995689;28;20043;-75
2022/01/09 02:52:34;;;;;;;28.67;17.42;;;4.40;99.90;;;;;;4998530;28;20050;-75
2022/01/09 02:55:14;;;;;;;21.42;13.05;;;4.40;99.90;;;;;;5001723;28;20042;-75
2022/01/09 02:57:41;;;;;;;21.67;13.63;;;4.40;99.90;;;;;;5036874;27;20165;-75
2022/01/09 03:00:14;;;;;;;25.08;16.55;;;4.40;99.90;;;;;;4993603;28;20042;-76
2022/01/09 03:02:40;;;;;;;27.00;16.08;;;4.40;99.90;;;;;;5001542;28;20076;-75
2022/01/09 03:05:07;;;;;;;27.50;16.67;;;4.50;99.90;;;;;;5000896;28;20845;-75
2022/01/09 03:07:32;;;;;;;28.50;15.13;;;4.50;99.90;;;;;;4999219;28;20062;-75
2022/01/09 03:09:58;;;;;;;27.83;14.80;;;4.70;99.90;;;;;;4990598;28;20493;-76
2022/01/09 03:12:24;;;;;;;24.85;14.05;;;4.50;99.90;;;;;;4999004;28;20063;-76
2022/01/09 03:14:50;;;;;;;25.90;14.70;;;4.50;99.90;;;;;;4994362;28;20038;-75
2022/01/09 03:17:15;;;;;;;27.65;14.75;;;4.50;99.90;;;;;;4994342;28;20191;-75
2022/01/09 03:19:41;;;;;;;25.20;13.82;;;4.60;99.90;;;;;;5030051;28;20083;-76
2022/01/09 03:22:07;;;;;;;32.50;16.20;;;4.60;99.90;;;;;;4997046;28;20046;-75
2022/01/09 03:24:32;;;;;;;23.95;13.10;;;4.60;99.90;;;;;;5000699;28;20049;-75
2022/01/09 03:26:58;;;;;;;23.20;12.90;;;4.60;99.90;;;;;;4999066;28;20123;-76
2022/01/09 03:29:24;;;;;;;26.85;12.95;;;4.60;99.90;;;;;;4993578;28;20042;-76
2022/01/09 03:31:49;;;;;;;28.92;11.88;;;4.70;99.90;;;;;;4996353;28;20057;-75
2022/01/09 03:34:15;;;;;;;24.23;11.02;;;4.70;99.90;;;;;;5025637;27;20534;-75
2022/01/09 03:36:40;;;;;;;25.98;11.55;;;4.70;99.90;;;;;;4999801;28;20038;-76
2022/01/09 03:39:06;;;;;;;23.42;10.73;;;4.70;99.90;;;;;;5005795;28;20058;-76
2022/01/09 03:41:32;;;;;;;18.85;9.38;;;4.70;99.90;;;;;;5006442;28;20046;-76
2022/01/09 03:43:57;;;;;;;25.42;9.48;;;4.70;99.90;;;;;;5017847;28;20047;-75
2022/01/09 03:46:23;;;;;;;21.70;8.73;;;4.70;99.90;;;;;;5005580;28;20054;-75
2022/01/09 03:48:49;;;;;;;28.20;7.75;;;4.80;99.90;;;;;;4997630;28;20046;-75
2022/01/09 03:51:14;;;;;;;23.58;6.53;;;4.80;99.90;;;;;;4997064;28;20484;-76
2022/01/09 03:53:40;;;;;;;24.95;6.13;;;4.80;99.90;;;;;;5002326;28;20045;-76
2022/01/09 03:56:06;;;;;;;33.58;7.20;;;4.80;99.90;;;;;;5007386;28;20049;-76
2022/01/09 03:58:31;;;;;;;27.05;6.80;;;4.90;99.90;;;;;;5003090;28;20052;-76
2022/01/09 04:00:57;;;;;;;27.08;6.43;;;4.90;99.90;;;;;;4999932;28;20161;-76
2022/01/09 04:03:23;;;;;;;34.25;5.75;;;4.90;99.90;;;;;;5005350;28;20069;-76
2022/01/09 04:05:49;;;;;;;32.35;7.03;;;5.00;99.90;;;;;;5005131;28;20034;-75
2022/01/09 04:08:14;;;;;;;25.77;5.85;;;5.00;99.90;;;;;;4998657;28;20099;-76
2022/01/09 04:10:42;;;;;;;38.92;6.50;;;5.10;99.90;;;;;;5001475;28;20042;-76
2022/01/09 04:13:11;;;;;;;30.05;6.45;;;5.20;99.90;;;;;;4998722;28;20069;-76
2022/01/09 04:15:38;;;;;;;41.70;6.55;;;5.20;99.90;;;;;;5004325;28;20038;-76
2022/01/09 04:18:05;;;;;;;43.03;6.05;;;5.30;99.90;;;;;;4999025;28;20099;-76
2022/01/09 04:20:31;;;;;;;36.22;7.97;;;5.30;99.90;;;;;;4999872;28;20042;-76
2022/01/09 04:22:58;;;;;;;49.30;7.82;;;5.30;99.90;;;;;;5004195;28;20098;-76
2022/01/09 04:25:25;;;;;;;35.72;5.78;;;5.40;99.90;;;;;;5002379;28;20053;-76
2022/01/09 04:27:51;;;;;;;35.25;6.10;;;5.40;99.90;;;;;;5004020;28;20068;-76
2022/01/09 04:30:18;;;;;;;46.58;6.80;;;5.40;99.90;;;;;;4999189;28;20094;-76
2022/01/09 04:32:44;;;;;;;38.20;5.68;;;5.40;99.90;;;;;;5003642;28;20080;-76
2022/01/09 04:35:12;;;;;;;37.78;6.88;;;5.50;99.90;;;;;;5001415;28;20073;-76
2022/01/09 04:37:38;;;;;;;41.80;7.47;;;5.50;99.90;;;;;;5003245;28;20054;-76
2022/01/09 04:40:08;;;;;;;29.60;4.88;;;5.50;99.90;;;;;;4999503;28;20129;-75
2022/01/09 04:42:43;;;;;;;33.85;5.18;;;5.50;99.90;;;;;;5010195;28;20073;-76
2022/01/09 04:45:11;;;;;;;39.15;5.72;;;5.50;99.90;;;;;;5026279;27;20054;-76
2022/01/09 04:47:39;;;;;;;36.10;4.65;;;5.50;99.90;;;;;;4996803;28;20154;-76
2022/01/09 04:50:06;;;;;;;39.72;5.20;;;5.50;99.90;;;;;;4998458;28;20141;-75
2022/01/09 04:52:36;;;;;;;29.90;4.75;;;5.60;99.90;;;;;;5003664;28;20049;-76
2022/01/09 04:55:01;;;;;;;37.70;6.28;;;5.60;99.90;;;;;;5000346;28;20057;-76
2022/01/09 04:57:27;;;;;;;33.50;4.60;;;6.00;99.90;;;;;;5000206;28;20393;-76
2022/01/09 04:59:53;;;;;;;32.58;5.38;;;5.60;99.90;;;;;;5000799;28;20118;-76
2022/01/09 05:02:18;;;;;;;30.15;4.82;;;5.60;99.90;;;;;;5000658;28;20512;-76
2022/01/09 05:04:44;;;;;;;26.42;4.80;;;5.60;99.90;;;;;;5004078;28;20030;-76
2022/01/09 05:07:10;;;;;;;44.63;5.38;;;6.00;99.90;;;;;;5024784;28;20920;-76
2022/01/09 05:09:35;;;;;;;32.15;5.40;;;5.60;99.90;;;;;;5002152;28;20049;-76
2022/01/09 05:12:01;;;;;;;40.72;5.07;;;5.60;99.90;;;;;;4994315;28;20087;-76
2022/01/09 05:14:27;;;;;;;32.25;4.72;;;5.60;99.90;;;;;;5001079;28;20424;-76
2022/01/09 05:16:52;;;;;;;21.33;3.30;;;5.60;99.90;;;;;;4999179;28;20046;-76
2022/01/09 05:19:20;;;;;;;28.08;5.18;;;5.60;99.90;;;;;;4997810;28;20047;-76
2022/01/09 05:21:47;;;;;;;27.00;4.75;;;5.60;99.90;;;;;;5002009;28;20050;-76
2022/01/09 05:24:14;;;;;;;26.10;4.00;;;5.60;99.90;;;;;;4998674;28;20046;-76
2022/01/09 05:26:39;;;;;;;28.70;4.38;;;5.60;99.90;;;;;;5001351;28;20475;-77
2022/01/09 05:29:05;;;;;;;34.20;4.32;;;5.60;99.90;;;;;;4999940;28;20050;-76
2022/01/09 05:31:31;;;;;;;19.17;3.17;;;5.60;99.90;;;;;;4999643;28;20458;-76
2022/01/09 05:33:56;;;;;;;24.17;5.07;;;5.60;99.90;;;;;;4999925;28;20049;-77
2022/01/09 05:36:22;;;;;;;25.13;3.60;;;5.60;99.90;;;;;;5004419;28;20056;-76
2022/01/09 05:38:48;;;;;;;36.03;3.88;;;5.60;99.90;;;;;;5000137;28;20072;-76
2022/01/09 05:41:13;;;;;;;21.52;3.40;;;5.60;99.90;;;;;;4996186;28;20056;-76
2022/01/09 05:43:40;;;;;;;19.90;3.03;;;5.60;99.90;;;;;;5008805;28;20099;-76
2022/01/09 05:46:06;;;;;;;22.88;3.55;;;5.60;99.90;;;;;;4999917;28;20056;-77
2022/01/09 05:48:32;;;;;;;17.45;3.78;;;5.60;99.90;;;;;;4999271;28;20042;-76
2022/01/09 05:50:58;;;;;;;18.80;3.58;;;5.60;99.90;;;;;;4999480;28;20046;-77
2022/01/09 05:53:23;;;;;;;26.95;3.45;;;5.70;99.90;;;;;;5000361;28;20050;-77
2022/01/09 05:55:49;;;;;;;25.85;4.25;;;5.60;99.90;;;;;;4998111;28;20084;-77
2022/01/09 05:58:15;;;;;;;16.05;3.05;;;5.60;99.90;;;;;;4997070;28;20046;-77
2022/01/09 06:00:40;;;;;;;22.80;3.47;;;5.50;99.90;;;;;;4997281;28;20431;-77
2022/01/09 06:03:06;;;;;;;21.67;2.78;;;5.60;99.90;;;;;;4994034;28;20125;-77
2022/01/09 06:05:31;;;;;;;27.73;3.53;;;5.50;99.90;;;;;;5000081;28;20401;-77
2022/01/09 06:07:57;;;;;;;26.00;3.13;;;5.60;99.90;;;;;;5032819;27;20050;-76
2022/01/09 06:10:23;;;;;;;27.30;3.83;;;5.50;99.90;;;;;;5000383;28;20481;-76
2022/01/09 06:12:48;;;;;;;17.15;2.58;;;5.50;99.90;;;;;;4996165;28;20527;-76
2022/01/09 06:15:14;;;;;;;23.10;2.97;;;5.50;99.90;;;;;;4996629;28;20038;-76
2022/01/09 06:17:42;;;;;;;19.58;3.40;;;5.50;99.90;;;;;;4999718;28;20050;-77
2022/01/09 06:20:10;;;;;;;16.17;2.50;;;5.50;99.90;;;;;;4998549;28;20052;-77
2022/01/09 06:22:36;;;;;;;21.40;2.80;;;5.50;99.90;;;;;;4994422;28;20495;-76
2022/01/09 06:25:02;;;;;;;17.08;2.75;;;5.50;99.90;;;;;;4995854;28;20045;-77
2022/01/09 06:27:28;;;;;;;23.48;2.75;;;5.50;99.90;;;;;;4995166;28;20088;-77
2022/01/09 06:29:53;;;;;;;19.10;3.22;;;5.50;99.90;;;;;;4996582;28;20073;-76
2022/01/09 06:32:19;;;;;;;12.45;2.17;;;5.40;99.90;;;;;;4995077;28;20077;-77
2022/01/09 06:34:45;;;;;;;18.90;2.58;;;5.40;99.90;;;;;;5004018;28;20480;-77
2022/01/09 06:37:12;;;;;;;21.05;2.60;;;5.50;99.90;;;;;;5027831;28;20069;-77
2022/01/09 06:39:41;;;;;;;17.48;2.58;;;5.50;99.90;;;;;;5001117;28;20058;-76
2022/01/09 06:42:07;;;;;;;20.85;2.72;;;5.50;99.90;;;;;;4997973;28;20053;-77
2022/01/09 06:44:32;;;;;;;14.10;2.08;;;5.50;99.90;;;;;;5022098;28;20557;-76
2022/01/09 06:46:58;;;;;;;15.52;2.85;;;5.40;99.90;;;;;;5002395;28;20054;-76
2022/01/09 06:49:23;;;;;;;19.98;2.20;;;5.50;99.90;;;;;;4996100;28;20042;-76
2022/01/09 06:51:49;;;;;;;21.98;2.72;;;5.50;99.90;;;;;;4993478;28;20092;-76
2022/01/09 06:54:15;;;;;;;13.43;2.42;;;5.50;99.90;;;;;;4994907;28;20374;-76
2022/01/09 06:56:41;;;;;;;28.75;3.75;;;5.40;99.90;;;;;;5007786;28;20045;-76
2022/01/09 06:59:07;;;;;;;24.50;3.55;;;5.40;99.90;;;;;;5000266;28;20057;-76
2022/01/09 07:01:32;;;;;;;23.92;4.38;;;5.40;99.90;;;;;;5002205;28;20054;-77
2022/01/09 07:03:58;;;;;;;18.23;2.50;;;5.40;99.90;;;;;;4994867;28;20407;-76
2022/01/09 07:06:24;;;;;;;18.88;2.65;;;5.40;99.90;;;;;;4995471;28;20091;-76
2022/01/09 07:08:49;;;;;;;19.60;2.35;;;5.40;99.90;;;;;;4995508;28;20127;-76
2022/01/09 07:11:15;;;;;;;21.38;3.30;;;5.40;99.90;;;;;;4999113;28;20057;-76
2022/01/09 07:13:40;;;;;;;23.45;3.42;;;5.40;99.90;;;;;;5001928;28;20035;-76
2022/01/09 07:16:06;;;;;;;13.90;2.85;;;5.40;99.90;;;;;;5006460;28;20048;-77
2022/01/09 07:18:32;;;;;;;20.80;2.30;;;5.40;99.90;;;;;;5010849;28;20042;-75
2022/01/09 07:20:57;;;;;;;19.50;2.33;;;5.40;99.90;;;;;;5016481;28;20046;-76
2022/01/09 07:23:23;;;;;;;23.40;3.58;;;5.40;99.90;;;;;;5003553;28;20058;-75
2022/01/09 07:25:48;;;;;;;19.98;3.00;;;5.30;99.90;;;;;;5003212;28;20068;-75
2022/01/09 07:28:14;;;;;;;20.77;2.70;;;5.40;99.90;;;;;;5003718;28;20489;-75
2022/01/09 07:30:40;;;;;;;17.10;2.33;;;5.30;99.90;;;;;;5005940;28;20506;-75
2022/01/09 07:33:05;;;;;;;18.65;2.83;;;5.30;99.90;;;;;;5003933;28;20457;-75
2022/01/09 07:35:31;;;;;;;16.50;2.35;;;5.30;99.90;;;;;;5002753;28;20038;-76
2022/01/09 07:37:57;;;;;;;22.05;3.28;;;5.30;99.90;;;;;;4999141;28;20085;-76
2022/01/09 07:40:23;;;;;;;12.93;1.77;;;5.30;99.90;;;;;;5003431;28;20069;-76
2022/01/09 07:42:50;;;;;;;20.23;2.13;;;5.30;99.90;;;;;;5012980;28;20043;-75
2022/01/09 07:45:16;;;;;;;21.83;2.85;;;5.30;99.90;;;;;;5014213;28;20067;-76
2022/01/09 07:47:42;;;;;;;18.25;3.67;;;5.30;99.90;;;;;;5001649;28;20084;-75
2022/01/09 07:50:10;;;;;;;12.48;1.90;;;5.30;99.90;;;;;;5005064;28;20073;-76
2022/01/09 07:52:36;;;;;;;16.42;2.10;;;5.30;99.90;;;;;;5005473;28;20042;-76
2022/01/09 07:55:04;;;;;;;17.13;2.40;;;5.20;99.90;;;;;;5005008;28;20424;-76
2022/01/09 07:57:30;;;;;;;21.30;2.50;;;5.20;99.90;;;;;;5015132;28;20045;-76
2022/01/09 07:59:56;;;;;;;14.57;2.70;;;5.20;99.90;;;;;;5002384;28;20048;-76
2022/01/09 08:02:23;;;;;;;25.35;2.33;;;5.10;99.90;;;;;;5002716;28;20070;-76
2022/01/09 08:04:49;;;;;;;13.50;2.42;;;5.10;99.90;;;;;;5003133;28;20123;-77
2022/01/09 08:07:15;;;;;;;12.05;2.47;;;5.10;99.90;;;;;;4997862;28;20046;-76
2022/01/09 08:09:42;;;;;;;14.15;1.98;;;5.10;99.90;;;;;;4999670;28;20507;-77
2022/01/09 08:12:10;;;;;;;11.55;2.47;;;5.10;99.90;;;;;;4992257;28;20110;-76
2022/01/09 08:14:37;;;;;;;11.07;1.60;;;5.10;99.90;;;;;;5000075;28;20066;-76
2022/01/09 08:17:03;;;;;;;15.27;1.80;;;5.10;99.90;;;;;;5002147;28;20053;-76
2022/01/09 08:19:30;;;;;;;14.50;1.73;;;5.10;99.90;;;;;;5002507;28;20046;-76
2022/01/09 08:21:56;;;;;;;15.35;1.77;;;5.10;99.90;;;;;;5003615;28;20691;-76
2022/01/09 08:24:22;;;;;;;16.45;2.25;;;5.10;99.90;;;;;;4998629;28;20034;-76
2022/01/09 08:26:47;;;;;;;13.68;1.83;;;5.10;99.90;;;;;;4997694;28;20052;-76
2022/01/09 08:29:14;;;;;;;9.95;1.08;;;5.10;99.90;;;;;;5025582;28;20141;-76
2022/01/09 08:31:40;;;;;;;7.40;1.65;;;5.10;99.90;;;;;;4997722;28;20094;-75
2022/01/09 08:34:06;;;;;;;10.75;1.75;;;5.10;99.90;;;;;;4998604;28;21672;-75
2022/01/09 08:36:32;;;;;;;13.80;1.65;;;5.10;99.90;;;;;;4999435;28;20046;-75
2022/01/09 08:38:57;;;;;;;11.18;2.13;;;5.10;99.90;;;;;;4998743;28;20069;-75
2022/01/09 08:41:23;;;;;;;7.75;1.33;;;5.10;99.90;;;;;;5002383;28;20039;-90
2022/01/09 08:43:49;;;;;;;12.50;1.30;;;5.10;99.90;;;;;;5004478;28;20038;-75
2022/01/09 08:46:15;;;;;;;11.95;1.75;;;5.10;99.90;;;;;;5004336;28;20050;-75
2022/01/09 08:48:41;;;;;;;9.13;1.00;;;5.10;99.90;;;;;;4996693;28;20050;-74
2022/01/09 08:51:07;;;;;;;13.68;1.73;;;5.10;99.90;;;;;;5004793;28;20049;-75
2022/01/09 08:53:35;;;;;;;10.43;1.30;;;5.10;99.90;;;;;;5004401;28;20041;-75
2022/01/09 08:56:06;;;;;;;10.18;1.70;;;5.10;99.90;;;;;;5015697;28;20091;-75
2022/01/09 08:58:32;;;;;;;10.65;1.40;;;5.10;99.90;;;;;;5002737;28;20080;-76
2022/01/09 09:00:58;;;;;;;5.95;1.63;;;5.10;99.90;;;;;;4998610;28;20058;-74
2022/01/09 09:03:24;;;;;;;10.75;1.52;;;5.10;99.90;;;;;;5001906;28;20038;-75
2022/01/09 09:05:50;;;;;;;6.60;1.50;;;5.10;99.90;;;;;;4996901;28;20110;-75
2022/01/09 09:08:15;;;;;;;10.45;1.75;;;5.10;99.90;;;;;;5003359;28;20369;-70
2022/01/09 09:10:41;;;;;;;12.10;1.98;;;5.10;99.90;;;;;;5001545;28;20038;-79
2022/01/09 09:13:07;;;;;;;10.95;2.00;;;5.10;99.90;;;;;;4992801;28;20050;-74
2022/01/09 09:15:33;;;;;;;13.68;2.17;;;5.10;99.90;;;;;;4996445;28;20054;-75
2022/01/09 09:17:59;;;;;;;12.88;1.60;;;5.10;99.90;;;;;;5003803;28;20042;-74
2022/01/09 09:20:25;;;;;;;12.63;1.45;;;5.10;99.90;;;;;;5003274;28;20175;-74
2022/01/09 09:22:50;;;;;;;13.18;1.60;;;5.10;99.90;;;;;;5005057;28;20057;-74
2022/01/09 09:25:16;;;;;;;16.52;2.45;;;5.10;99.90;;;;;;5009825;28;20046;-73
2022/01/09 09:27:42;;;;;;;14.88;1.83;;;5.10;99.90;;;;;;5052354;27;20050;-74
2022/01/09 09:30:10;;;;;;;10.38;1.70;;;5.10;99.90;;;;;;5014438;28;20042;-75
2022/01/09 09:32:36;;;;;;;15.60;2.03;;;5.10;99.90;;;;;;5006468;28;20374;-75
2022/01/09 09:35:03;;;;;;;15.55;2.45;;;5.10;99.90;;;;;;5005953;28;20101;-77
2022/01/09 09:37:29;;;;;;;23.15;5.38;;;5.10;99.90;;;;;;5012501;28;20050;-75
2022/01/09 09:39:55;;;;;;;11.00;2.42;;;5.10;99.90;;;;;;5014322;28;20690;-75
2022/01/09 09:42:21;;;;;;;18.02;2.38;;;5.10;99.90;;;;;;5006619;28;20042;-74
2022/01/09 09:44:47;;;;;;;15.15;3.58;;;5.10;99.90;;;;;;5003554;28;20054;-75
2022/01/09 09:47:16;;;;;;;16.20;3.30;;;5.20;99.90;;;;;;5011774;28;21515;-74
2022/01/09 09:49:42;;;;;;;16.42;3.38;;;5.20;99.90;;;;;;5027509;27;20052;-75
2022/01/09 09:52:07;;;;;;;13.80;2.35;;;5.20;99.90;;;;;;5006539;28;20042;-76
2022/01/09 09:54:33;;;;;;;11.95;1.80;;;5.20;99.90;;;;;;5004211;28;20042;-75
2022/01/09 09:56:59;;;;;;;13.60;1.90;;;5.20;99.90;;;;;;5007705;28;20053;-76
2022/01/09 09:59:28;;;;;;;14.98;1.77;;;5.20;99.90;;;;;;5012611;28;20129;-76
2022/01/09 10:01:53;;;;;;;16.13;1.75;;;5.20;99.90;;;;;;5007050;28;20563;-75
2022/01/09 10:04:19;;;;;;;12.57;1.60;;;5.20;99.90;;;;;;5001373;28;20066;-75
2022/01/09 10:06:48;;;;;;;12.55;1.52;;;5.20;99.90;;;;;;5005444;28;20042;-75
2022/01/09 10:09:21;;;;;;;10.63;1.42;;;5.30;99.90;;;;;;5002451;28;20064;-75
2022/01/09 10:11:55;;;;;;;13.75;1.40;;;5.30;99.90;;;;;;5000223;28;20124;-73
2022/01/09 10:14:30;;;;;;;7.75;1.25;;;5.30;99.90;;;;;;5000642;28;20503;-73
2022/01/09 10:17:21;;;;;;;11.52;1.38;;;5.30;99.90;;;;;;4984184;28;20044;-73
2022/01/09 10:19:48;;;;;;;9.27;2.53;;;5.30;99.90;;;;;;5001379;28;20050;-77
2022/01/09 10:22:24;;;;;;;9.93;2.10;;;5.30;99.90;;;;;;4996898;28;20494;-78
2022/01/09 10:24:50;;;;;;;8.63;2.00;;;5.30;99.90;;;;;;5000952;28;20072;-77
2022/01/09 10:27:33;;;;;;;12.85;1.35;;;5.40;99.90;;;;;;4999365;28;20489;-78
2022/01/09 10:29:59;;;;;;;9.60;1.20;;;5.30;99.90;;;;;;4999996;28;20578;-76
2022/01/09 10:32:32;;;;;;;9.55;1.30;;;5.40;99.90;;;;;;4998026;28;20034;-75
2022/01/09 10:35:18;;;;;;;6.13;1.13;;;5.40;99.90;;;;;;5006502;28;20073;-74
2022/01/09 10:37:47;;;;;;;10.80;1.50;;;5.40;99.90;;;;;;4997676;28;20066;-74
2022/01/09 10:40:22;;;;;;;7.90;1.45;;;5.40;99.90;;;;;;4998949;28;20054;-74
2022/01/09 10:43:04;;;;;;;14.95;1.65;;;5.40;99.90;;;;;;5000770;28;20089;-72
2022/01/09 10:45:31;;;;;;;8.77;1.50;;;5.40;99.90;;;;;;5015660;28;20070;-76
2022/01/09 10:48:12;;;;;;;5.03;1.20;;;5.40;99.90;;;;;;4999097;28;20062;-76
2022/01/09 10:50:41;;;;;;;9.10;1.30;;;5.40;99.90;;;;;;4997147;28;20045;-76
2022/01/09 10:53:18;;;;;;;9.73;1.15;;;5.40;99.90;;;;;;4994680;28;20117;-75
2022/01/09 10:56:09;;;;;;;13.88;2.10;;;5.40;99.90;;;;;;4996322;28;20042;-76
2022/01/09 10:58:41;;;;;;;9.43;1.63;;;5.40;99.90;;;;;;5019269;28;20183;-74
2022/01/09 11:01:10;;;;;;;10.23;1.45;;;5.40;99.90;;;;;;4997708;28;20065;-73
2022/01/09 11:03:36;;;;;;;14.20;1.60;;;5.40;99.90;;;;;;4998328;28;20042;-72
2022/01/09 11:06:02;;;;;;;8.68;1.77;;;5.40;99.90;;;;;;4997089;28;20046;-76
2022/01/09 11:08:31;;;;;;;9.90;1.67;;;5.50;99.90;;;;;;5001372;28;20065;-76
2022/01/09 11:10:59;;;;;;;9.77;1.27;;;5.50;99.90;;;;;;5001116;28;20059;-76
2022/01/09 11:13:25;;;;;;;5.82;1.00;;;5.50;99.90;;;;;;5006769;28;20506;-77
2022/01/09 11:18:39;;;;;;;8.75;1.15;;;5.50;99.90;;;;;;4998923;28;20042;-76
2022/01/09 11:21:05;;;;;;;9.70;1.00;;;5.60;99.90;;;;;;5001118;28;20054;-76
2022/01/09 11:23:58;;;;;;;10.88;1.40;;;5.60;99.90;;;;;;5004092;28;20038;-75
2022/01/09 11:26:32;;;;;;;10.60;1.48;;;5.60;99.90;;;;;;5024411;28;20103;-76
2022/01/09 11:28:58;;;;;;;8.07;1.27;;;5.70;99.90;;;;;;5002864;28;20042;-76
2022/01/09 11:31:35;;;;;;;10.93;1.25;;;5.70;99.90;;;;;;5004600;28;20042;-76
2022/01/09 11:34:26;;;;;;;11.32;1.73;;;5.80;99.90;;;;;;5000112;28;20038;-76
2022/01/09 11:37:06;;;;;;;10.52;1.42;;;5.70;99.90;;;;;;5004697;28;20042;-76
2022/01/09 11:39:36;;;;;;;9.70;1.95;;;5.80;99.90;;;;;;5002291;28;20054;-76
2022/01/09 11:42:13;;;;;;;11.38;1.55;;;5.90;99.90;;;;;;5005979;28;20061;-76
2022/01/09 11:44:53;;;;;;;12.27;1.70;;;5.90;99.90;;;;;;5004484;28;20053;-76
2022/01/09 11:47:19;;;;;;;10.45;1.83;;;5.90;99.90;;;;;;5004994;28;20400;-76
2022/01/09 11:49:54;;;;;;;11.70;1.85;;;6.00;99.90;;;;;;4996060;28;20077;-76
2022/01/09 11:52:21;;;;;;;11.35;2.25;;;6.10;99.90;;;;;;5003738;28;20050;-76
2022/01/09 11:54:56;;;;;;;13.25;2.58;;;6.20;99.90;;;;;;5005754;28;20069;-76
2022/01/09 11:57:41;;;;;;;13.00;1.90;;;6.30;99.90;;;;;;5007520;28;20057;-76
2022/01/09 12:00:08;;;;;;;9.02;1.88;;;6.40;99.90;;;;;;5002565;28;20065;-76
2022/01/09 12:02:37;;;;;;;10.70;1.70;;;6.40;99.90;;;;;;5008692;28;20125;-76
2022/01/09 12:05:06;;;;;;;6.07;0.95;;;6.50;99.90;;;;;;5003808;28;20050;-76
2022/01/09 12:07:34;;;;;;;8.75;2.03;;;6.50;99.90;;;;;;5004952;28;20125;-76
2022/01/09 12:10:27;;;;;;;11.93;1.45;;;6.50;99.90;;;;;;5009033;28;20041;-76
2022/01/09 12:12:53;;;;;;;15.10;1.95;;;6.50;99.90;;;;;;5002050;28;21743;-76
2022/01/09 12:15:38;;;;;;;9.00;1.42;;;6.60;99.90;;;;;;5007058;28;20042;-76
2022/01/09 12:18:06;;;;;;;11.38;1.85;;;6.60;99.90;;;;;;5007737;28;20392;-76
2022/01/09 12:20:37;;;;;;;7.10;1.30;;;6.70;99.90;;;;;;5006753;28;20056;-76
2022/01/09 12:23:08;;;;;;;10.63;1.98;;;6.80;99.90;;;;;;5008030;28;20046;-76
2022/01/09 12:25:33;;;;;;;15.32;2.00;;;6.90;99.90;;;;;;5009099;28;20095;-76
2022/01/09 12:28:03;;;;;;;5.32;1.30;;;7.00;99.90;;;;;;5007562;28;20573;-76
2022/01/09 12:30:54;;;;;;;19.98;1.55;;;7.00;99.90;;;;;;5002103;28;20506;-76
2022/01/09 12:33:31;;;;;;;9.85;1.95;;;7.00;99.90;;;;;;5002191;28;20056;-76
2022/01/09 12:35:59;;;;;;;10.80;1.50;;;7.00;99.90;;;;;;5004068;28;20137;-76
2022/01/09 12:38:28;;;;;;;9.30;1.40;;;7.00;99.90;;;;;;4999135;28;20046;-76
2022/01/09 12:41:03;;;;;;;15.13;2.42;;;6.90;99.90;;;;;;5005641;28;20105;-76
2022/01/09 12:43:30;;;;;;;9.35;1.95;;;6.90;99.90;;;;;;5014872;28;20037;-76
2022/01/09 12:45:57;;;;;;;11.45;1.75;;;6.80;99.90;;;;;;5033645;27;20408;-76
2022/01/09 12:48:31;;;;;;;8.02;1.27;;;6.70;99.90;;;;;;5005154;28;20034;-76
2022/01/09 12:51:12;;;;;;;7.47;1.30;;;6.70;99.90;;;;;;5007475;28;20481;-76